| time (UTC) | temp F | wind direction | speed MPH | gust MPH | rain 1hr in | rain 24hr in | rain mn in | humidity % | barometer mb |
| 20260508133034 | 48 | 93 | 0.0 | 4.0 | 0.00 | 0.05 | 0.00 | 59 | 1020.8 |
| 20260508131531 | 53 | 36 | 3.0 | 10.0 | 0.00 | 0.05 | 0.00 | 40 | 1020.2 |
| 20260508130037 | 52 | 319 | 3.0 | 6.0 | 0.00 | 0.05 | 0.00 | 42 | 1020.1 |
| 20260508124535 | 51 | 19 | 1.0 | 5.0 | 0.00 | 0.05 | 0.00 | 44 | 1020.1 |
| 20260508123030 | 49 | 269 | 1.0 | 3.0 | 0.00 | 0.05 | 0.00 | 48 | 1020.2 |
| 20260508121530 | 48 | 277 | 1.0 | 3.0 | 0.00 | 0.05 | 0.00 | 49 | 1020.1 |
| 20260508120027 | 48 | 279 | 0.0 | 2.0 | 0.00 | 0.05 | 0.00 | 49 | 1020.0 |
| 20260508114527 | 48 | 290 | 1.0 | 4.0 | 0.00 | 0.05 | 0.00 | 49 | 1019.8 |
| 20260508113026 | 48 | 320 | 1.0 | 4.0 | 0.00 | 0.05 | 0.00 | 48 | 1019.8 |
| 20260508111525 | 49 | 307 | 0.0 | 4.0 | 0.00 | 0.05 | 0.00 | 47 | 1019.9 |
| 20260508110027 | 49 | 313 | 2.0 | 7.0 | 0.00 | 0.05 | 0.00 | 47 | 1019.9 |
| 20260508104529 | 48 | 302 | 1.0 | 4.0 | 0.00 | 0.05 | 0.00 | 49 | 1019.8 |
| 20260508103027 | 48 | 281 | 0.0 | 4.0 | 0.00 | 0.05 | 0.00 | 49 | 1019.9 |
| 20260508101519 | 49 | 275 | 0.0 | 2.0 | 0.00 | 0.05 | 0.00 | 46 | 1020.0 |
| 20260508100019 | 50 | 276 | 1.0 | 6.0 | 0.00 | 0.05 | 0.00 | 45 | 1020.2 |
| 20260508094522 | 50 | 267 | 1.0 | 8.0 | 0.00 | 0.05 | 0.00 | 45 | 1020.2 |
| 20260508093026 | 50 | 275 | 0.0 | 2.0 | 0.00 | 0.05 | 0.00 | 45 | 1020.3 |
| 20260508091518 | 51 | 276 | 2.0 | 6.0 | 0.00 | 0.05 | 0.00 | 44 | 1020.3 |
| 20260508090013 | 51 | 281 | 2.0 | 5.0 | 0.00 | 0.05 | 0.00 | 44 | 1020.6 |
| 20260508084513 | 50 | 274 | 2.0 | 5.0 | 0.00 | 0.05 | 0.00 | 45 | 1021.0 |
| 20260508083009 | 51 | 267 | 0.0 | 2.0 | 0.00 | 0.05 | 0.00 | 43 | 1021.2 |
| 20260508081510 | 51 | 252 | 0.0 | 2.0 | 0.00 | 0.05 | 0.00 | 42 | 1021.3 |
| 20260508080004 | 53 | 313 | 1.0 | 7.0 | 0.00 | 0.05 | 0.00 | 40 | 1021.6 |
| 20260508074502 | 53 | 265 | 3.0 | 10.0 | 0.00 | 0.05 | 0.00 | 39 | 1021.6 |
| 20260508073101 | 53 | 279 | 3.0 | 10.0 | 0.00 | 0.05 | 0.00 | 38 | 1021.8 |
| 20260508071558 | 54 | 268 | 4.0 | 13.0 | 0.00 | 0.05 | 0.00 | 38 | 1021.9 |
| 20260508070055 | 54 | 264 | 3.0 | 13.0 | 0.00 | 0.05 | 0.00 | 38 | 1022.2 |
| 20260508064555 | 54 | 300 | 5.0 | 16.0 | 0.00 | 0.05 | 0.05 | 37 | 1022.1 |
| 20260508063104 | 54 | 284 | 5.0 | 16.0 | 0.00 | 0.05 | 0.05 | 37 | 1022.1 |
| 20260508061553 | 54 | 277 | 5.0 | 15.0 | 0.00 | 0.05 | 0.05 | 37 | 1022.3 |
| 20260508060053 | 54 | 284 | 7.0 | 13.0 | 0.00 | 0.05 | 0.05 | 38 | 1022.4 |
| 20260508054553 | 54 | 284 | 6.0 | 13.0 | 0.00 | 0.05 | 0.05 | 37 | 1022.6 |
| 20260508053103 | 55 | 275 | 7.0 | 13.0 | 0.00 | 0.05 | 0.05 | 37 | 1022.8 |
| 20260508051550 | 55 | 294 | 5.0 | 12.0 | 0.00 | 0.05 | 0.05 | 36 | 1022.8 |
| 20260508050049 | 55 | 272 | 3.0 | 11.0 | 0.00 | 0.05 | 0.05 | 36 | 1023.0 |
| 20260508044548 | 56 | 313 | 4.0 | 10.0 | 0.00 | 0.05 | 0.05 | 35 | 1023.1 |
| 20260508043057 | 56 | 311 | 3.0 | 13.0 | 0.00 | 0.05 | 0.05 | 34 | 1023.3 |
| 20260508041552 | 56 | 291 | 5.0 | 11.0 | 0.00 | 0.05 | 0.05 | 34 | 1023.5 |
| 20260508040046 | 57 | 299 | 5.0 | 12.0 | 0.00 | 0.05 | 0.05 | 33 | 1023.8 |
| 20260508034546 | 57 | 277 | 5.0 | 15.0 | 0.00 | 0.05 | 0.05 | 31 | 1023.8 |
| 20260508033046 | 57 | 314 | 2.0 | 9.0 | 0.00 | 0.05 | 0.05 | 31 | 1023.8 |
| 20260508031545 | 56 | 290 | 3.0 | 5.0 | 0.00 | 0.05 | 0.05 | 32 | 1023.7 |
| 20260508030046 | 55 | 276 | 1.0 | 3.0 | 0.00 | 0.05 | 0.05 | 34 | 1023.5 |
| 20260508024547 | 56 | 276 | 1.0 | 3.0 | 0.00 | 0.05 | 0.05 | 34 | 1023.5 |
| 20260508023044 | 55 | 271 | 1.0 | 4.0 | 0.00 | 0.05 | 0.05 | 35 | 1023.5 |
| 20260508021549 | 56 | 271 | 1.0 | 3.0 | 0.00 | 0.05 | 0.05 | 34 | 1023.4 |
| 20260508020048 | 57 | 279 | 0.0 | 2.0 | 0.00 | 0.05 | 0.05 | 31 | 1023.4 |
| 20260508014542 | 58 | 268 | 1.0 | 3.0 | 0.00 | 0.05 | 0.05 | 30 | 1023.4 |
| 20260508013052 | 59 | 284 | 0.0 | 1.0 | 0.00 | 0.05 | 0.05 | 30 | 1023.4 |
| 20260508011544 | 60 | 272 | 0.0 | 4.0 | 0.00 | 0.05 | 0.05 | 30 | 1023.5 |
| 20260508010040 | 60 | 283 | 1.0 | 5.0 | 0.00 | 0.05 | 0.05 | 28 | 1023.5 |
| 20260508004540 | 61 | 277 | 1.0 | 3.0 | 0.00 | 0.06 | 0.05 | 28 | 1023.4 |
| 20260508003040 | 60 | 265 | 1.0 | 7.0 | 0.00 | 0.06 | 0.05 | 28 | 1023.5 |
| 20260508001605 | 61 | 300 | 2.0 | 8.0 | 0.00 | 0.06 | 0.05 | 26 | 1023.6 |
| 20260508000038 | 61 | 286 | 3.0 | 7.0 | 0.00 | 0.06 | 0.05 | 26 | 1024.0 |
| 20260507234538 | 62 | 281 | 1.0 | 6.0 | 0.00 | 0.06 | 0.05 | 26 | 1023.9 |
| 20260507233037 | 64 | 327 | 1.0 | 7.0 | 0.00 | 0.06 | 0.05 | 25 | 1024.1 |
| 20260507231538 | 64 | 261 | 3.0 | 7.0 | 0.00 | 0.06 | 0.05 | 26 | 1024.1 |
| 20260507230035 | 64 | 294 | 4.0 | 9.0 | 0.00 | 0.06 | 0.05 | 24 | 1024.9 |
| 20260507224542 | 65 | 292 | 1.0 | 13.0 | 0.00 | 0.06 | 0.05 | 26 | 1024.8 |
| 20260507223034 | 62 | 271 | 4.0 | 16.0 | 0.00 | 0.06 | 0.05 | 26 | 1025.1 |
| 20260507221534 | 63 | 281 | 5.0 | 13.0 | 0.00 | 0.06 | 0.05 | 26 | 1025.2 |
| 20260507220041 | 63 | 269 | 6.0 | 12.0 | 0.00 | 0.06 | 0.05 | 26 | 1025.6 |
| 20260507214536 | 63 | 19 | 5.0 | 17.0 | 0.00 | 0.06 | 0.05 | 25 | 1025.7 |
| 20260507213033 | 64 | 277 | 2.0 | 6.0 | 0.00 | 0.06 | 0.05 | 28 | 1026.0 |
| 20260507211534 | 62 | 287 | 4.0 | 18.0 | 0.00 | 0.06 | 0.05 | 28 | 1026.2 |
| 20260507210029 | 63 | 338 | 9.0 | 16.0 | 0.00 | 0.06 | 0.05 | 26 | 1026.8 |
| 20260507204528 | 65 | 28 | 1.0 | 6.0 | 0.00 | 0.06 | 0.05 | 29 | 1027.0 |
| 20260507203032 | 63 | 11 | 0.0 | 8.0 | 0.00 | 0.06 | 0.05 | 30 | 1027.3 |
| 20260507201524 | 60 | 122 | 0.0 | 7.0 | 0.00 | 0.06 | 0.05 | 32 | 1027.9 |
| 20260507200027 | 59 | 290 | 3.0 | 9.0 | 0.00 | 0.06 | 0.05 | 30 | 1028.3 |
| 20260507194523 | 58 | 12 | 1.0 | 15.0 | 0.00 | 0.06 | 0.05 | 31 | 1028.5 |
| 20260507193025 | 60 | 313 | 3.0 | 14.0 | 0.00 | 0.06 | 0.05 | 29 | 1028.9 |
| 20260507191522 | 62 | 119 | 3.0 | 10.0 | 0.00 | 0.06 | 0.05 | 28 | 1029.2 |
| 20260507190021 | 62 | 292 | 2.0 | 8.0 | 0.00 | 0.06 | 0.05 | 29 | 1029.5 |
| 20260507184519 | 62 | 338 | 2.0 | 5.0 | 0.00 | 0.06 | 0.05 | 29 | 1029.6 |
| 20260507183018 | 62 | 12 | 0.0 | 5.0 | 0.00 | 0.06 | 0.05 | 25 | 1029.8 |
| 20260507181517 | 62 | 128 | 1.0 | 5.0 | 0.00 | 0.06 | 0.05 | 27 | 1030.0 |
| 20260507180015 | 61 | 94 | 1.0 | 5.0 | 0.00 | 0.06 | 0.05 | 26 | 1030.4 |
| 20260507174512 | 59 | 300 | 4.0 | 9.0 | 0.00 | 0.06 | 0.05 | 25 | 1031.0 |
| 20260507173012 | 58 | 298 | 1.0 | 9.0 | 0.00 | 0.06 | 0.05 | 28 | 1031.3 |
| 20260507171513 | 57 | 286 | 4.0 | 11.0 | 0.00 | 0.06 | 0.05 | 25 | 1031.9 |
| 20260507170004 | 56 | 277 | 4.0 | 10.0 | 0.00 | 0.06 | 0.05 | 30 | 1032.3 |
| 20260507164600 | 55 | 268 | 4.0 | 11.0 | 0.01 | 0.06 | 0.05 | 32 | 1032.5 |
| 20260507163058 | 53 | 324 | 6.0 | 14.0 | 0.01 | 0.06 | 0.05 | 31 | 1032.6 |
| 20260507161557 | 53 | 300 | 4.0 | 10.0 | 0.01 | 0.06 | 0.05 | 32 | 1032.8 |
| 20260507160055 | 52 | 292 | 5.0 | 14.0 | 0.01 | 0.06 | 0.05 | 32 | 1033.0 |
| 20260507154551 | 51 | 265 | 8.0 | 17.0 | 0.00 | 0.05 | 0.04 | 35 | 1033.2 |
| 20260507153058 | 51 | 274 | 8.0 | 15.0 | 0.00 | 0.05 | 0.04 | 34 | 1033.2 |
| 20260507151545 | 50 | 298 | 8.0 | 18.0 | 0.01 | 0.05 | 0.04 | 34 | 1033.4 |
| 20260507150043 | 49 | 313 | 11.0 | 20.0 | 0.03 | 0.05 | 0.04 | 35 | 1033.5 |
| 20260507144541 | 48 | 267 | 10.0 | 19.0 | 0.04 | 0.05 | 0.04 | 35 | 1033.4 |
| 20260507143042 | 48 | 273 | 10.0 | 22.0 | 0.04 | 0.05 | 0.04 | 34 | 1033.4 |
| 20260507141538 | 47 | 245 | 13.0 | 23.0 | 0.03 | 0.04 | 0.03 | 35 | 1033.6 |
| 20260507140041 | 47 | 294 | 12.0 | 25.0 | 0.01 | 0.02 | 0.01 | 35 | 1033.7 |
| 20260507134539 | 47 | 32 | 10.0 | 24.0 | 0.00 | 0.01 | 0.00 | 35 | 1033.9 |